sensor_id;sensor_type;location;lat;lon;timestamp;P1;durP1;ratioP1;P2;durP2;ratioP2
58222;SDS011;44020;50.890;15.796;2024-01-07T00:06:56;19.00;;;10.40;;
58222;SDS011;44020;50.890;15.796;2024-01-07T00:09:52;19.10;;;10.40;;
58222;SDS011;44020;50.890;15.796;2024-01-07T00:15:04;20.40;;;10.70;;
58222;SDS011;44020;50.890;15.796;2024-01-07T00:17:40;20.50;;;10.40;;
58222;SDS011;44020;50.890;15.796;2024-01-07T00:20:08;19.10;;;9.80;;
58222;SDS011;44020;50.890;15.796;2024-01-07T00:22:37;21.20;;;10.00;;
58222;SDS011;44020;50.890;15.796;2024-01-07T00:25:07;20.90;;;10.40;;
58222;SDS011;44020;50.890;15.796;2024-01-07T00:27:34;22.40;;;10.30;;
58222;SDS011;44020;50.890;15.796;2024-01-07T00:32:58;18.20;;;9.30;;
58222;SDS011;44020;50.890;15.796;2024-01-07T00:38:49;18.80;;;9.90;;
58222;SDS011;44020;50.890;15.796;2024-01-07T00:41:45;14.30;;;7.90;;
58222;SDS011;44020;50.890;15.796;2024-01-07T00:44:36;16.10;;;7.90;;
58222;SDS011;44020;50.890;15.796;2024-01-07T00:47:38;14.20;;;7.60;;
58222;SDS011;44020;50.890;15.796;2024-01-07T00:50:06;19.10;;;9.20;;
58222;SDS011;44020;50.890;15.796;2024-01-07T00:52:43;18.70;;;9.10;;
58222;SDS011;44020;50.890;15.796;2024-01-07T00:58:22;15.40;;;7.50;;
58222;SDS011;44020;50.890;15.796;2024-01-07T01:01:10;16.80;;;8.00;;
58222;SDS011;44020;50.890;15.796;2024-01-07T01:03:43;14.60;;;7.20;;
58222;SDS011;44020;50.890;15.796;2024-01-07T01:06:25;14.70;;;7.40;;
58222;SDS011;44020;50.890;15.796;2024-01-07T01:08:52;16.80;;;8.60;;
58222;SDS011;44020;50.890;15.796;2024-01-07T01:11:31;16.90;;;8.40;;
58222;SDS011;44020;50.890;15.796;2024-01-07T01:14:20;18.30;;;8.90;;
58222;SDS011;44020;50.890;15.796;2024-01-07T01:17:07;18.20;;;8.80;;
58222;SDS011;44020;50.890;15.796;2024-01-07T01:19:34;16.40;;;7.60;;
58222;SDS011;44020;50.890;15.796;2024-01-07T01:22:10;14.00;;;7.60;;
58222;SDS011;44020;50.890;15.796;2024-01-07T01:24:46;20.10;;;9.20;;
58222;SDS011;44020;50.890;15.796;2024-01-07T01:27:18;15.10;;;8.80;;
58222;SDS011;44020;50.890;15.796;2024-01-07T01:29:45;16.30;;;8.60;;
58222;SDS011;44020;50.890;15.796;2024-01-07T01:32:13;16.30;;;8.60;;
58222;SDS011;44020;50.890;15.796;2024-01-07T01:34:40;23.20;;;9.80;;
58222;SDS011;44020;50.890;15.796;2024-01-07T01:37:11;26.60;;;10.80;;
58222;SDS011;44020;50.890;15.796;2024-01-07T01:39:59;20.20;;;10.10;;
58222;SDS011;44020;50.890;15.796;2024-01-07T01:42:26;17.70;;;9.20;;
58222;SDS011;44020;50.890;15.796;2024-01-07T01:44:59;15.90;;;9.00;;
58222;SDS011;44020;50.890;15.796;2024-01-07T01:47:30;20.60;;;9.40;;
58222;SDS011;44020;50.890;15.796;2024-01-07T01:49:58;17.00;;;9.50;;
58222;SDS011;44020;50.890;15.796;2024-01-07T01:52:29;16.50;;;9.50;;
58222;SDS011;44020;50.890;15.796;2024-01-07T01:55:03;17.80;;;9.20;;
58222;SDS011;44020;50.890;15.796;2024-01-07T02:01:03;19.90;;;10.40;;
58222;SDS011;44020;50.890;15.796;2024-01-07T02:03:40;19.50;;;9.90;;
58222;SDS011;44020;50.890;15.796;2024-01-07T02:09:31;17.30;;;9.00;;
58222;SDS011;44020;50.890;15.796;2024-01-07T02:12:04;17.00;;;9.70;;
58222;SDS011;44020;50.890;15.796;2024-01-07T02:14:53;17.20;;;8.30;;
58222;SDS011;44020;50.890;15.796;2024-01-07T02:26:52;19.90;;;9.30;;
58222;SDS011;44020;50.890;15.796;2024-01-07T02:33:22;16.10;;;8.60;;
58222;SDS011;44020;50.890;15.796;2024-01-07T02:39:50;17.40;;;8.80;;
58222;SDS011;44020;50.890;15.796;2024-01-07T02:42:37;18.00;;;8.70;;
58222;SDS011;44020;50.890;15.796;2024-01-07T02:48:08;15.70;;;7.60;;
58222;SDS011;44020;50.890;15.796;2024-01-07T02:59:31;11.90;;;7.40;;
58222;SDS011;44020;50.890;15.796;2024-01-07T03:02:07;15.50;;;8.70;;
58222;SDS011;44020;50.890;15.796;2024-01-07T03:08:04;15.80;;;8.60;;
58222;SDS011;44020;50.890;15.796;2024-01-07T03:11:19;15.90;;;9.20;;
58222;SDS011;44020;50.890;15.796;2024-01-07T03:13:56;16.10;;;8.80;;
58222;SDS011;44020;50.890;15.796;2024-01-07T03:16:43;16.10;;;9.00;;
58222;SDS011;44020;50.890;15.796;2024-01-07T03:19:32;18.10;;;9.60;;
58222;SDS011;44020;50.890;15.796;2024-01-07T03:25:56;19.00;;;9.50;;
58222;SDS011;44020;50.890;15.796;2024-01-07T03:38:18;21.30;;;10.90;;
58222;SDS011;44020;50.890;15.796;2024-01-07T03:44:33;19.80;;;10.60;;
58222;SDS011;44020;50.890;15.796;2024-01-07T03:49:58;21.30;;;11.00;;
58222;SDS011;44020;50.890;15.796;2024-01-07T03:52:57;20.80;;;12.10;;
58222;SDS011;44020;50.890;15.796;2024-01-07T04:01:33;22.80;;;10.90;;
58222;SDS011;44020;50.890;15.796;2024-01-07T04:04:48;18.50;;;11.10;;
58222;SDS011;44020;50.890;15.796;2024-01-07T04:10:57;23.70;;;12.50;;
58222;SDS011;44020;50.890;15.796;2024-01-07T04:17:12;21.60;;;12.40;;
58222;SDS011;44020;50.890;15.796;2024-01-07T04:26:10;22.90;;;11.50;;
58222;SDS011;44020;50.890;15.796;2024-01-07T04:44:01;19.30;;;10.40;;
58222;SDS011;44020;50.890;15.796;2024-01-07T04:46:41;15.50;;;8.60;;
58222;SDS011;44020;50.890;15.796;2024-01-07T04:49:51;17.70;;;9.50;;
58222;SDS011;44020;50.890;15.796;2024-01-07T04:52:39;18.80;;;9.80;;
58222;SDS011;44020;50.890;15.796;2024-01-07T04:55:27;15.00;;;8.90;;
58222;SDS011;44020;50.890;15.796;2024-01-07T04:58:14;16.20;;;8.90;;
58222;SDS011;44020;50.890;15.796;2024-01-07T05:01:22;21.40;;;10.20;;
58222;SDS011;44020;50.890;15.796;2024-01-07T05:03:57;30.60;;;13.60;;
58222;SDS011;44020;50.890;15.796;2024-01-07T05:06:45;15.40;;;8.70;;
58222;SDS011;44020;50.890;15.796;2024-01-07T05:09:27;18.60;;;10.40;;
58222;SDS011;44020;50.890;15.796;2024-01-07T05:15:40;18.10;;;9.60;;
58222;SDS011;44020;50.890;15.796;2024-01-07T05:18:22;12.50;;;7.70;;
58222;SDS011;44020;50.890;15.796;2024-01-07T05:21:34;17.30;;;10.00;;
58222;SDS011;44020;50.890;15.796;2024-01-07T05:24:42;15.30;;;8.10;;
58222;SDS011;44020;50.890;15.796;2024-01-07T05:27:12;15.90;;;8.80;;
58222;SDS011;44020;50.890;15.796;2024-01-07T05:30:06;16.70;;;8.80;;
58222;SDS011;44020;50.890;15.796;2024-01-07T05:32:53;22.60;;;10.80;;
58222;SDS011;44020;50.890;15.796;2024-01-07T05:35:30;19.40;;;10.80;;
58222;SDS011;44020;50.890;15.796;2024-01-07T05:38:27;12.60;;;7.70;;
58222;SDS011;44020;50.890;15.796;2024-01-07T05:43:57;15.50;;;8.80;;
58222;SDS011;44020;50.890;15.796;2024-01-07T05:46:54;18.30;;;10.30;;
58222;SDS011;44020;50.890;15.796;2024-01-07T05:49:21;13.70;;;8.10;;
58222;SDS011;44020;50.890;15.796;2024-01-07T05:55:17;14.70;;;7.50;;
58222;SDS011;44020;50.890;15.796;2024-01-07T05:58:02;13.80;;;8.00;;
58222;SDS011;44020;50.890;15.796;2024-01-07T06:04:33;12.60;;;7.00;;
58222;SDS011;44020;50.890;15.796;2024-01-07T06:06:56;16.90;;;9.30;;
58222;SDS011;44020;50.890;15.796;2024-01-07T06:09:26;14.60;;;8.30;;
58222;SDS011;44020;50.890;15.796;2024-01-07T06:18:04;16.70;;;10.00;;
58222;SDS011;44020;50.890;15.796;2024-01-07T06:20:37;16.20;;;8.10;;
58222;SDS011;44020;50.890;15.796;2024-01-07T06:23:05;11.60;;;6.90;;
58222;SDS011;44020;50.890;15.796;2024-01-07T06:26:13;12.80;;;7.50;;
58222;SDS011;44020;50.890;15.796;2024-01-07T06:29:00;13.00;;;8.20;;
58222;SDS011;44020;50.890;15.796;2024-01-07T06:31:49;12.30;;;7.30;;
58222;SDS011;44020;50.890;15.796;2024-01-07T06:34:16;12.90;;;8.10;;
58222;SDS011;44020;50.890;15.796;2024-01-07T06:37:16;14.90;;;7.50;;
58222;SDS011;44020;50.890;15.796;2024-01-07T06:39:52;12.20;;;7.90;;
58222;SDS011;44020;50.890;15.796;2024-01-07T06:42:29;11.60;;;7.10;;
58222;SDS011;44020;50.890;15.796;2024-01-07T06:45:05;14.40;;;8.70;;
58222;SDS011;44020;50.890;15.796;2024-01-07T06:50:25;10.60;;;7.10;;
58222;SDS011;44020;50.890;15.796;2024-01-07T06:59:09;14.90;;;8.40;;
58222;SDS011;44020;50.890;15.796;2024-01-07T07:07:23;13.70;;;8.50;;
58222;SDS011;44020;50.890;15.796;2024-01-07T07:09:59;18.20;;;8.80;;
58222;SDS011;44020;50.890;15.796;2024-01-07T07:12:38;14.90;;;8.80;;
58222;SDS011;44020;50.890;15.796;2024-01-07T07:15:09;13.90;;;8.30;;
58222;SDS011;44020;50.890;15.796;2024-01-07T07:23:04;12.30;;;7.00;;
58222;SDS011;44020;50.890;15.796;2024-01-07T07:32:02;13.00;;;8.60;;
58222;SDS011;44020;50.890;15.796;2024-01-07T07:34:29;18.30;;;10.90;;
58222;SDS011;44020;50.890;15.796;2024-01-07T07:37:08;17.40;;;10.20;;
58222;SDS011;44020;50.890;15.796;2024-01-07T07:39:36;15.40;;;9.20;;
58222;SDS011;44020;50.890;15.796;2024-01-07T07:42:03;16.30;;;10.00;;
58222;SDS011;44020;50.890;15.796;2024-01-07T07:44:57;14.50;;;9.70;;
58222;SDS011;44020;50.890;15.796;2024-01-07T07:47:24;15.30;;;8.70;;
58222;SDS011;44020;50.890;15.796;2024-01-07T07:49:55;15.10;;;8.50;;
58222;SDS011;44020;50.890;15.796;2024-01-07T08:00:03;13.40;;;8.40;;
58222;SDS011;44020;50.890;15.796;2024-01-07T08:02:25;17.30;;;9.80;;
58222;SDS011;44020;50.890;15.796;2024-01-07T08:08:30;16.50;;;10.20;;
58222;SDS011;44020;50.890;15.796;2024-01-07T08:11:05;17.80;;;10.40;;
58222;SDS011;44020;50.890;15.796;2024-01-07T08:17:05;13.90;;;9.30;;
58222;SDS011;44020;50.890;15.796;2024-01-07T08:19:54;17.90;;;10.00;;
58222;SDS011;44020;50.890;15.796;2024-01-07T08:22:33;23.40;;;13.60;;
58222;SDS011;44020;50.890;15.796;2024-01-07T08:28:12;52.20;;;19.10;;
58222;SDS011;44020;50.890;15.796;2024-01-07T08:30:39;21.80;;;11.30;;
58222;SDS011;44020;50.890;15.796;2024-01-07T08:33:27;16.20;;;10.80;;
58222;SDS011;44020;50.890;15.796;2024-01-07T08:35:56;16.70;;;10.30;;
58222;SDS011;44020;50.890;15.796;2024-01-07T08:38:32;17.20;;;9.50;;
58222;SDS011;44020;50.890;15.796;2024-01-07T08:41:05;16.00;;;8.30;;
58222;SDS011;44020;50.890;15.796;2024-01-07T08:43:32;15.60;;;9.50;;
58222;SDS011;44020;50.890;15.796;2024-01-07T08:46:00;17.40;;;9.30;;
58222;SDS011;44020;50.890;15.796;2024-01-07T08:48:27;18.80;;;10.00;;
58222;SDS011;44020;50.890;15.796;2024-01-07T08:50:55;18.10;;;9.80;;
58222;SDS011;44020;50.890;15.796;2024-01-07T08:53:45;14.90;;;8.50;;
58222;SDS011;44020;50.890;15.796;2024-01-07T08:56:36;13.70;;;8.20;;
58222;SDS011;44020;50.890;15.796;2024-01-07T08:59:16;14.80;;;9.00;;
58222;SDS011;44020;50.890;15.796;2024-01-07T09:01:52;13.70;;;8.00;;
58222;SDS011;44020;50.890;15.796;2024-01-07T09:04:51;15.80;;;9.10;;
58222;SDS011;44020;50.890;15.796;2024-01-07T09:07:28;13.60;;;8.00;;
58222;SDS011;44020;50.890;15.796;2024-01-07T09:09:55;13.10;;;8.10;;
58222;SDS011;44020;50.890;15.796;2024-01-07T09:13:08;14.60;;;8.70;;
58222;SDS011;44020;50.890;15.796;2024-01-07T09:15:36;12.80;;;8.40;;
58222;SDS011;44020;50.890;15.796;2024-01-07T09:24:35;13.40;;;8.10;;
58222;SDS011;44020;50.890;15.796;2024-01-07T09:27:05;12.50;;;8.30;;
58222;SDS011;44020;50.890;15.796;2024-01-07T09:29:47;17.90;;;9.70;;
58222;SDS011;44020;50.890;15.796;2024-01-07T09:35:17;14.20;;;8.90;;
58222;SDS011;44020;50.890;15.796;2024-01-07T09:37:47;18.70;;;11.30;;
58222;SDS011;44020;50.890;15.796;2024-01-07T09:40:17;18.20;;;9.60;;
58222;SDS011;44020;50.890;15.796;2024-01-07T09:42:51;17.20;;;11.00;;
58222;SDS011;44020;50.890;15.796;2024-01-07T09:45:25;15.30;;;8.50;;
58222;SDS011;44020;50.890;15.796;2024-01-07T09:47:56;15.10;;;8.50;;
58222;SDS011;44020;50.890;15.796;2024-01-07T09:50:27;12.60;;;8.40;;
58222;SDS011;44020;50.890;15.796;2024-01-07T09:53:03;13.00;;;9.10;;
58222;SDS011;44020;50.890;15.796;2024-01-07T09:55:33;15.20;;;9.70;;
58222;SDS011;44020;50.890;15.796;2024-01-07T09:58:16;13.60;;;8.10;;
58222;SDS011;44020;50.890;15.796;2024-01-07T10:00:55;11.80;;;7.60;;
58222;SDS011;44020;50.890;15.796;2024-01-07T10:03:33;12.20;;;7.50;;
58222;SDS011;44020;50.890;15.796;2024-01-07T10:06:41;12.70;;;7.50;;
58222;SDS011;44020;50.890;15.796;2024-01-07T10:09:22;11.10;;;7.50;;
58222;SDS011;44020;50.890;15.796;2024-01-07T10:11:50;12.60;;;9.00;;
58222;SDS011;44020;50.890;15.796;2024-01-07T10:14:18;11.60;;;8.10;;
58222;SDS011;44020;50.890;15.796;2024-01-07T10:19:54;13.40;;;8.20;;
58222;SDS011;44020;50.890;15.796;2024-01-07T10:22:57;14.80;;;7.90;;
58222;SDS011;44020;50.890;15.796;2024-01-07T10:25:24;11.70;;;7.60;;
58222;SDS011;44020;50.890;15.796;2024-01-07T10:28:04;11.10;;;7.60;;
58222;SDS011;44020;50.890;15.796;2024-01-07T10:33:40;12.20;;;7.30;;
58222;SDS011;44020;50.890;15.796;2024-01-07T10:36:20;10.20;;;5.80;;
58222;SDS011;44020;50.890;15.796;2024-01-07T10:38:58;11.70;;;6.30;;
58222;SDS011;44020;50.890;15.796;2024-01-07T10:41:27;9.60;;;4.60;;
58222;SDS011;44020;50.890;15.796;2024-01-07T10:47:06;10.40;;;5.90;;
58222;SDS011;44020;50.890;15.796;2024-01-07T10:49:34;7.30;;;4.10;;
58222;SDS011;44020;50.890;15.796;2024-01-07T10:52:04;7.00;;;3.30;;
58222;SDS011;44020;50.890;15.796;2024-01-07T10:54:37;8.00;;;4.00;;
58222;SDS011;44020;50.890;15.796;2024-01-07T10:59:51;7.50;;;3.60;;
58222;SDS011;44020;50.890;15.796;2024-01-07T11:03:09;8.40;;;4.20;;
58222;SDS011;44020;50.890;15.796;2024-01-07T11:11:35;5.80;;;3.00;;
58222;SDS011;44020;50.890;15.796;2024-01-07T11:17:49;5.00;;;2.10;;
58222;SDS011;44020;50.890;15.796;2024-01-07T11:20:39;5.30;;;2.30;;
58222;SDS011;44020;50.890;15.796;2024-01-07T11:23:35;6.50;;;2.60;;
58222;SDS011;44020;50.890;15.796;2024-01-07T11:26:32;6.30;;;3.10;;
58222;SDS011;44020;50.890;15.796;2024-01-07T11:31:44;6.20;;;2.80;;
58222;SDS011;44020;50.890;15.796;2024-01-07T11:37:33;7.10;;;2.80;;
58222;SDS011;44020;50.890;15.796;2024-01-07T11:40:20;6.70;;;2.90;;
58222;SDS011;44020;50.890;15.796;2024-01-07T11:45:45;6.70;;;3.10;;
58222;SDS011;44020;50.890;15.796;2024-01-07T11:48:12;5.10;;;3.00;;
58222;SDS011;44020;50.890;15.796;2024-01-07T11:50:41;4.40;;;2.50;;
58222;SDS011;44020;50.890;15.796;2024-01-07T12:00:28;6.00;;;3.20;;
58222;SDS011;44020;50.890;15.796;2024-01-07T12:03:20;8.10;;;3.60;;
58222;SDS011;44020;50.890;15.796;2024-01-07T12:05:47;5.80;;;2.90;;
58222;SDS011;44020;50.890;15.796;2024-01-07T12:14:26;7.10;;;3.40;;
58222;SDS011;44020;50.890;15.796;2024-01-07T12:16:53;6.00;;;3.10;;
58222;SDS011;44020;50.890;15.796;2024-01-07T12:19:41;6.20;;;2.50;;
58222;SDS011;44020;50.890;15.796;2024-01-07T12:22:08;5.60;;;2.80;;
58222;SDS011;44020;50.890;15.796;2024-01-07T12:27:58;7.10;;;3.30;;
58222;SDS011;44020;50.890;15.796;2024-01-07T12:30:37;6.30;;;3.50;;
58222;SDS011;44020;50.890;15.796;2024-01-07T12:33:25;6.20;;;3.20;;
58222;SDS011;44020;50.890;15.796;2024-01-07T12:35:52;9.50;;;4.20;;
58222;SDS011;44020;50.890;15.796;2024-01-07T12:38:24;11.80;;;5.00;;
58222;SDS011;44020;50.890;15.796;2024-01-07T12:41:04;22.10;;;7.20;;
58222;SDS011;44020;50.890;15.796;2024-01-07T12:46:45;17.20;;;7.10;;
58222;SDS011;44020;50.890;15.796;2024-01-07T12:49:15;15.20;;;6.60;;
58222;SDS011;44020;50.890;15.796;2024-01-07T12:51:46;14.90;;;6.70;;
58222;SDS011;44020;50.890;15.796;2024-01-07T12:54:14;14.90;;;7.10;;
58222;SDS011;44020;50.890;15.796;2024-01-07T12:56:41;11.20;;;5.90;;
58222;SDS011;44020;50.890;15.796;2024-01-07T12:59:12;11.10;;;5.40;;
58222;SDS011;44020;50.890;15.796;2024-01-07T13:01:49;8.00;;;4.40;;
58222;SDS011;44020;50.890;15.796;2024-01-07T13:04:18;9.90;;;4.50;;
58222;SDS011;44020;50.890;15.796;2024-01-07T13:06:46;11.20;;;5.00;;
58222;SDS011;44020;50.890;15.796;2024-01-07T13:09:14;10.60;;;4.90;;
58222;SDS011;44020;50.890;15.796;2024-01-07T13:11:44;9.30;;;4.90;;
58222;SDS011;44020;50.890;15.796;2024-01-07T13:14:11;10.10;;;5.00;;
58222;SDS011;44020;50.890;15.796;2024-01-07T13:16:39;8.60;;;4.60;;
58222;SDS011;44020;50.890;15.796;2024-01-07T13:19:08;11.00;;;5.50;;
58222;SDS011;44020;50.890;15.796;2024-01-07T13:21:42;9.50;;;5.10;;
58222;SDS011;44020;50.890;15.796;2024-01-07T13:24:09;8.80;;;5.00;;
58222;SDS011;44020;50.890;15.796;2024-01-07T13:26:37;9.80;;;6.20;;
58222;SDS011;44020;50.890;15.796;2024-01-07T13:29:33;10.30;;;5.30;;
58222;SDS011;44020;50.890;15.796;2024-01-07T13:32:00;10.10;;;5.10;;
58222;SDS011;44020;50.890;15.796;2024-01-07T13:37:46;14.30;;;6.50;;
58222;SDS011;44020;50.890;15.796;2024-01-07T13:40:35;12.70;;;7.40;;
58222;SDS011;44020;50.890;15.796;2024-01-07T13:43:01;13.40;;;6.30;;
58222;SDS011;44020;50.890;15.796;2024-01-07T13:45:29;12.70;;;6.80;;
58222;SDS011;44020;50.890;15.796;2024-01-07T13:47:59;10.90;;;5.90;;
58222;SDS011;44020;50.890;15.796;2024-01-07T13:50:41;11.80;;;6.00;;
58222;SDS011;44020;50.890;15.796;2024-01-07T13:53:09;12.20;;;5.80;;
58222;SDS011;44020;50.890;15.796;2024-01-07T13:55:43;12.80;;;6.00;;
58222;SDS011;44020;50.890;15.796;2024-01-07T13:58:13;14.10;;;6.20;;
58222;SDS011;44020;50.890;15.796;2024-01-07T14:03:19;14.80;;;6.70;;
58222;SDS011;44020;50.890;15.796;2024-01-07T14:05:50;12.80;;;6.40;;
58222;SDS011;44020;50.890;15.796;2024-01-07T14:08:18;15.20;;;8.20;;
58222;SDS011;44020;50.890;15.796;2024-01-07T14:10:47;12.70;;;6.20;;
58222;SDS011;44020;50.890;15.796;2024-01-07T14:13:15;12.70;;;6.30;;
58222;SDS011;44020;50.890;15.796;2024-01-07T14:15:42;13.00;;;6.10;;
58222;SDS011;44020;50.890;15.796;2024-01-07T14:18:10;12.70;;;6.30;;
58222;SDS011;44020;50.890;15.796;2024-01-07T14:20:42;17.40;;;7.40;;
58222;SDS011;44020;50.890;15.796;2024-01-07T14:23:16;17.20;;;7.60;;
58222;SDS011;44020;50.890;15.796;2024-01-07T14:25:57;20.90;;;8.90;;
58222;SDS011;44020;50.890;15.796;2024-01-07T14:28:25;23.10;;;9.40;;
58222;SDS011;44020;50.890;15.796;2024-01-07T14:30:56;23.90;;;9.70;;
58222;SDS011;44020;50.890;15.796;2024-01-07T14:33:24;18.50;;;9.10;;
58222;SDS011;44020;50.890;15.796;2024-01-07T14:35:55;12.40;;;6.40;;
58222;SDS011;44020;50.890;15.796;2024-01-07T14:38:23;15.90;;;7.60;;
58222;SDS011;44020;50.890;15.796;2024-01-07T14:40:52;10.80;;;5.60;;
58222;SDS011;44020;50.890;15.796;2024-01-07T14:43:19;13.50;;;7.20;;
58222;SDS011;44020;50.890;15.796;2024-01-07T14:45:47;20.20;;;9.30;;
58222;SDS011;44020;50.890;15.796;2024-01-07T14:48:14;34.00;;;13.20;;
58222;SDS011;44020;50.890;15.796;2024-01-07T14:50:41;24.90;;;10.50;;
58222;SDS011;44020;50.890;15.796;2024-01-07T14:53:11;23.00;;;10.30;;
58222;SDS011;44020;50.890;15.796;2024-01-07T14:55:48;18.40;;;8.10;;
58222;SDS011;44020;50.890;15.796;2024-01-07T14:58:15;17.60;;;8.40;;
58222;SDS011;44020;50.890;15.796;2024-01-07T15:00:45;23.70;;;11.80;;
58222;SDS011;44020;50.890;15.796;2024-01-07T15:03:13;24.70;;;11.10;;
58222;SDS011;44020;50.890;15.796;2024-01-07T15:05:47;19.70;;;9.30;;
58222;SDS011;44020;50.890;15.796;2024-01-07T15:08:27;17.90;;;7.90;;
58222;SDS011;44020;50.890;15.796;2024-01-07T15:10:54;20.00;;;9.60;;
58222;SDS011;44020;50.890;15.796;2024-01-07T15:13:22;21.00;;;9.80;;
58222;SDS011;44020;50.890;15.796;2024-01-07T15:16:13;43.20;;;18.80;;
58222;SDS011;44020;50.890;15.796;2024-01-07T15:18:49;17.30;;;8.70;;
58222;SDS011;44020;50.890;15.796;2024-01-07T15:21:24;17.60;;;8.60;;
58222;SDS011;44020;50.890;15.796;2024-01-07T15:23:51;20.00;;;9.60;;
58222;SDS011;44020;50.890;15.796;2024-01-07T15:26:30;18.10;;;9.10;;
58222;SDS011;44020;50.890;15.796;2024-01-07T15:29:01;15.60;;;7.80;;
58222;SDS011;44020;50.890;15.796;2024-01-07T15:31:35;15.60;;;8.30;;
58222;SDS011;44020;50.890;15.796;2024-01-07T15:34:05;14.00;;;7.90;;
58222;SDS011;44020;50.890;15.796;2024-01-07T15:36:32;23.10;;;9.80;;
58222;SDS011;44020;50.890;15.796;2024-01-07T15:39:03;22.30;;;11.20;;
58222;SDS011;44020;50.890;15.796;2024-01-07T15:44:33;16.90;;;8.00;;
58222;SDS011;44020;50.890;15.796;2024-01-07T15:47:02;23.30;;;10.00;;
58222;SDS011;44020;50.890;15.796;2024-01-07T15:49:33;18.00;;;8.50;;
58222;SDS011;44020;50.890;15.796;2024-01-07T15:52:30;18.10;;;8.20;;
58222;SDS011;44020;50.890;15.796;2024-01-07T15:55:18;22.60;;;11.00;;
58222;SDS011;44020;50.890;15.796;2024-01-07T15:57:45;20.50;;;9.50;;
58222;SDS011;44020;50.890;15.796;2024-01-07T16:00:13;22.80;;;9.30;;
58222;SDS011;44020;50.890;15.796;2024-01-07T16:03:01;14.70;;;7.10;;
58222;SDS011;44020;50.890;15.796;2024-01-07T16:05:30;17.80;;;7.50;;
58222;SDS011;44020;50.890;15.796;2024-01-07T16:08:00;18.90;;;8.00;;
58222;SDS011;44020;50.890;15.796;2024-01-07T16:10:27;14.50;;;7.00;;
58222;SDS011;44020;50.890;15.796;2024-01-07T16:12:58;15.80;;;6.70;;
58222;SDS011;44020;50.890;15.796;2024-01-07T16:15:25;15.70;;;7.20;;
58222;SDS011;44020;50.890;15.796;2024-01-07T16:17:53;19.00;;;8.40;;
58222;SDS011;44020;50.890;15.796;2024-01-07T16:20:32;18.50;;;8.30;;
58222;SDS011;44020;50.890;15.796;2024-01-07T16:23:21;15.20;;;6.80;;
58222;SDS011;44020;50.890;15.796;2024-01-07T16:26:12;15.20;;;7.10;;
58222;SDS011;44020;50.890;15.796;2024-01-07T16:28:39;15.60;;;7.40;;
58222;SDS011;44020;50.890;15.796;2024-01-07T16:31:08;17.70;;;7.60;;
58222;SDS011;44020;50.890;15.796;2024-01-07T16:33:38;14.50;;;7.20;;
58222;SDS011;44020;50.890;15.796;2024-01-07T16:36:06;20.00;;;8.80;;
58222;SDS011;44020;50.890;15.796;2024-01-07T16:41:41;19.40;;;7.90;;
58222;SDS011;44020;50.890;15.796;2024-01-07T16:44:22;17.20;;;7.00;;
58222;SDS011;44020;50.890;15.796;2024-01-07T16:46:59;17.80;;;7.50;;
58222;SDS011;44020;50.890;15.796;2024-01-07T16:49:40;33.50;;;13.50;;
58222;SDS011;44020;50.890;15.796;2024-01-07T16:52:27;17.10;;;7.60;;
58222;SDS011;44020;50.890;15.796;2024-01-07T16:54:58;16.90;;;8.50;;
58222;SDS011;44020;50.890;15.796;2024-01-07T16:57:49;14.40;;;7.00;;
58222;SDS011;44020;50.890;15.796;2024-01-07T17:00:19;20.70;;;8.40;;
58222;SDS011;44020;50.890;15.796;2024-01-07T17:02:55;38.10;;;11.80;;
58222;SDS011;44020;50.890;15.796;2024-01-07T17:08:22;51.60;;;15.20;;
58222;SDS011;44020;50.890;15.796;2024-01-07T17:10:50;39.70;;;12.80;;
58222;SDS011;44020;50.890;15.796;2024-01-07T17:13:18;32.70;;;11.20;;
58222;SDS011;44020;50.890;15.796;2024-01-07T17:15:45;22.80;;;8.90;;
58222;SDS011;44020;50.890;15.796;2024-01-07T17:18:13;26.70;;;9.50;;
58222;SDS011;44020;50.890;15.796;2024-01-07T17:20:49;62.60;;;18.10;;
58222;SDS011;44020;50.890;15.796;2024-01-07T17:23:38;32.60;;;11.30;;
58222;SDS011;44020;50.890;15.796;2024-01-07T17:29:05;14.30;;;7.40;;
58222;SDS011;44020;50.890;15.796;2024-01-07T17:31:33;20.60;;;8.50;;
58222;SDS011;44020;50.890;15.796;2024-01-07T17:34:00;15.70;;;8.10;;
58222;SDS011;44020;50.890;15.796;2024-01-07T17:36:27;15.90;;;7.30;;
58222;SDS011;44020;50.890;15.796;2024-01-07T17:39:02;18.70;;;8.70;;
58222;SDS011;44020;50.890;15.796;2024-01-07T17:41:30;16.30;;;8.10;;
58222;SDS011;44020;50.890;15.796;2024-01-07T17:43:57;16.10;;;7.90;;
58222;SDS011;44020;50.890;15.796;2024-01-07T17:49:12;38.20;;;15.60;;
58222;SDS011;44020;50.890;15.796;2024-01-07T17:51:42;23.80;;;10.50;;
58222;SDS011;44020;50.890;15.796;2024-01-07T17:54:13;24.80;;;10.20;;
58222;SDS011;44020;50.890;15.796;2024-01-07T17:56:50;28.90;;;10.90;;
58222;SDS011;44020;50.890;15.796;2024-01-07T17:59:17;31.80;;;13.90;;
58222;SDS011;44020;50.890;15.796;2024-01-07T18:01:48;29.40;;;13.30;;
58222;SDS011;44020;50.890;15.796;2024-01-07T18:04:27;25.30;;;12.60;;
58222;SDS011;44020;50.890;15.796;2024-01-07T18:06:57;19.60;;;9.50;;
58222;SDS011;44020;50.890;15.796;2024-01-07T18:09:50;20.60;;;10.00;;
58222;SDS011;44020;50.890;15.796;2024-01-07T18:12:18;21.30;;;10.00;;
58222;SDS011;44020;50.890;15.796;2024-01-07T18:15:00;17.80;;;8.10;;
58222;SDS011;44020;50.890;15.796;2024-01-07T18:17:27;19.10;;;9.70;;
58222;SDS011;44020;50.890;15.796;2024-01-07T18:20:02;14.30;;;7.50;;
58222;SDS011;44020;50.890;15.796;2024-01-07T18:22:42;22.30;;;10.90;;
58222;SDS011;44020;50.890;15.796;2024-01-07T18:25:13;16.60;;;8.40;;
58222;SDS011;44020;50.890;15.796;2024-01-07T18:27:43;18.70;;;9.30;;
58222;SDS011;44020;50.890;15.796;2024-01-07T18:30:11;17.60;;;8.60;;
58222;SDS011;44020;50.890;15.796;2024-01-07T18:32:51;15.60;;;7.40;;
58222;SDS011;44020;50.890;15.796;2024-01-07T18:39:26;17.60;;;7.50;;
58222;SDS011;44020;50.890;15.796;2024-01-07T18:41:55;15.70;;;6.60;;
58222;SDS011;44020;50.890;15.796;2024-01-07T18:44:30;13.50;;;6.60;;
58222;SDS011;44020;50.890;15.796;2024-01-07T18:47:18;12.20;;;6.30;;
58222;SDS011;44020;50.890;15.796;2024-01-07T18:49:48;13.30;;;6.40;;
58222;SDS011;44020;50.890;15.796;2024-01-07T18:55:55;19.20;;;7.70;;
58222;SDS011;44020;50.890;15.796;2024-01-07T18:58:31;19.60;;;6.80;;
58222;SDS011;44020;50.890;15.796;2024-01-07T19:01:05;21.40;;;8.70;;
58222;SDS011;44020;50.890;15.796;2024-01-07T19:03:36;26.30;;;10.20;;
58222;SDS011;44020;50.890;15.796;2024-01-07T19:06:12;18.90;;;7.80;;
58222;SDS011;44020;50.890;15.796;2024-01-07T19:12:00;18.00;;;7.50;;
58222;SDS011;44020;50.890;15.796;2024-01-07T19:14:29;21.10;;;8.10;;
58222;SDS011;44020;50.890;15.796;2024-01-07T19:16:57;19.00;;;9.20;;
58222;SDS011;44020;50.890;15.796;2024-01-07T19:19:49;20.00;;;9.00;;
58222;SDS011;44020;50.890;15.796;2024-01-07T19:22:17;17.60;;;7.50;;
58222;SDS011;44020;50.890;15.796;2024-01-07T19:24:44;19.90;;;8.90;;
58222;SDS011;44020;50.890;15.796;2024-01-07T19:27:11;15.30;;;7.60;;
58222;SDS011;44020;50.890;15.796;2024-01-07T19:29:45;22.50;;;9.70;;
58222;SDS011;44020;50.890;15.796;2024-01-07T19:32:56;72.40;;;17.10;;
58222;SDS011;44020;50.890;15.796;2024-01-07T19:38:06;19.10;;;7.90;;
58222;SDS011;44020;50.890;15.796;2024-01-07T19:40:37;59.90;;;14.60;;